Time;durP1;ratioP1;P1;durP2;ratioP2;P2;SDS_P1;SDS_P2;PMS_P1;PMS_P2;Temp;Humidity;BMP_temperature;BMP_pressure;BME280_temperature;BME280_humidity;BME280_pressure;Samples;Min_cycle;Max_cycle;Signal;HPM_P1;HPM_P2
2021/04/19 00:01:15;;;;;;;20.25;14.50;;;6.20;99.90;;;;;;447256;260;29514;-74
2021/04/19 00:03:16;;;;;;;21.10;15.02;;;6.20;99.90;;;;;;450137;263;27578;-72
2021/04/19 00:05:17;;;;;;;19.62;14.57;;;6.20;99.90;;;;;;443825;267;27649;-72
2021/04/19 00:07:19;;;;;;;20.07;15.20;;;6.20;99.90;;;;;;442015;268;27600;-72
2021/04/19 00:09:20;;;;;;;22.13;15.90;;;6.20;99.90;;;;;;444347;267;29380;-72
2021/04/19 00:11:21;;;;;;;21.92;14.23;;;6.20;99.90;;;;;;444274;267;28016;-74
2021/04/19 00:13:23;;;;;;;22.60;16.50;;;6.30;99.90;;;;;;445556;267;27497;-75
2021/04/19 00:15:24;;;;;;;22.57;17.87;;;6.30;99.90;;;;;;449469;263;28591;-75
2021/04/19 00:17:25;;;;;;;20.70;15.10;;;6.30;99.90;;;;;;450931;263;27886;-75
2021/04/19 00:19:26;;;;;;;21.67;14.50;;;6.30;99.90;;;;;;444821;266;28298;-74
2021/04/19 00:21:28;;;;;;;21.73;15.57;;;6.30;99.90;;;;;;444817;266;27956;-74
2021/04/19 00:23:29;;;;;;;24.87;18.15;;;6.40;99.90;;;;;;449189;264;28961;-75
2021/04/19 00:25:30;;;;;;;24.47;17.03;;;6.40;99.90;;;;;;457965;259;28097;-75
2021/04/19 00:27:31;;;;;;;23.37;16.30;;;6.40;99.90;;;;;;458024;258;27731;-74
2021/04/19 00:29:33;;;;;;;23.47;16.60;;;6.40;99.90;;;;;;457970;258;27977;-75
2021/04/19 00:31:34;;;;;;;22.37;17.37;;;6.40;99.90;;;;;;457992;258;28968;-74
2021/04/19 00:33:35;;;;;;;23.63;17.10;;;6.40;99.90;;;;;;457960;258;28542;-75
2021/04/19 00:35:36;;;;;;;23.27;17.60;;;6.40;99.90;;;;;;457965;258;27960;-74
2021/04/19 00:37:38;;;;;;;20.03;14.20;;;6.40;99.90;;;;;;457928;258;28637;-74
2021/04/19 00:39:39;;;;;;;21.37;15.30;;;6.50;99.90;;;;;;457905;258;28645;-74
2021/04/19 00:41:40;;;;;;;21.53;16.20;;;6.50;99.90;;;;;;457916;259;28695;-75
2021/04/19 00:43:41;;;;;;;20.20;15.50;;;6.50;99.90;;;;;;457942;259;28498;-76
2021/04/19 00:45:43;;;;;;;26.00;17.03;;;6.50;99.90;;;;;;457923;258;28055;-75
2021/04/19 00:47:47;;;;;;;19.53;14.60;;;6.40;99.90;;;;;;457937;258;27602;-76
2021/04/19 00:49:48;;;;;;;30.17;19.87;;;6.40;99.90;;;;;;457919;258;27702;-75
2021/04/19 00:51:49;;;;;;;29.73;18.00;;;6.40;99.90;;;;;;457947;258;28436;-75
2021/04/19 00:53:51;;;;;;;28.47;19.57;;;6.40;99.90;;;;;;457929;258;28351;-75
2021/04/19 00:55:52;;;;;;;15.53;12.30;;;6.50;99.90;;;;;;457987;258;28548;-75
2021/04/19 00:57:53;;;;;;;16.27;11.37;;;6.20;99.90;;;;;;457928;258;28904;-75
2021/04/19 00:59:54;;;;;;;12.83;10.97;;;5.90;99.90;;;;;;457953;258;28064;-75
2021/04/19 01:01:56;;;;;;;14.37;10.77;;;5.80;99.90;;;;;;457943;258;27741;-75
2021/04/19 01:03:57;;;;;;;15.10;11.50;;;5.80;99.90;;;;;;457956;258;28220;-75
2021/04/19 01:05:58;;;;;;;16.67;10.97;;;5.80;99.90;;;;;;457917;259;28083;-75
2021/04/19 01:07:59;;;;;;;17.17;11.80;;;5.80;99.90;;;;;;457977;258;28391;-75
2021/04/19 01:10:01;;;;;;;16.70;11.30;;;5.90;99.90;;;;;;458002;258;29407;-75
2021/04/19 01:12:02;;;;;;;17.70;12.23;;;6.00;99.90;;;;;;457988;258;28444;-75
2021/04/19 01:14:03;;;;;;;29.40;19.27;;;6.10;99.90;;;;;;457942;258;28555;-75
2021/04/19 01:16:04;;;;;;;23.37;16.13;;;6.00;99.90;;;;;;457937;258;29028;-75
2021/04/19 01:18:06;;;;;;;21.10;15.57;;;6.10;99.90;;;;;;457857;258;28037;-74
2021/04/19 01:20:07;;;;;;;22.83;16.10;;;6.10;99.90;;;;;;457913;258;28107;-75
2021/04/19 01:22:08;;;;;;;26.47;18.67;;;6.20;99.90;;;;;;457929;258;28914;-75
2021/04/19 01:24:09;;;;;;;28.60;19.17;;;6.20;99.90;;;;;;457985;258;28066;-76
2021/04/19 01:26:11;;;;;;;28.57;19.20;;;6.20;99.90;;;;;;457975;258;27988;-75
2021/04/19 01:28:12;;;;;;;26.20;18.10;;;6.20;99.90;;;;;;457919;258;29377;-75
2021/04/19 01:30:13;;;;;;;26.30;17.20;;;6.20;99.90;;;;;;457915;259;28853;-75
2021/04/19 01:32:14;;;;;;;31.43;19.03;;;6.20;99.90;;;;;;457963;258;28093;-77
2021/04/19 01:34:16;;;;;;;23.37;17.47;;;6.30;99.90;;;;;;457973;258;27871;-76
2021/04/19 01:36:17;;;;;;;33.67;21.80;;;6.30;99.90;;;;;;457960;259;28876;-75
2021/04/19 01:38:18;;;;;;;23.70;17.07;;;6.30;99.90;;;;;;457912;258;28903;-74
2021/04/19 01:40:19;;;;;;;20.67;15.43;;;6.30;99.90;;;;;;457918;258;27837;-75
2021/04/19 01:42:21;;;;;;;30.90;20.57;;;6.30;99.90;;;;;;457911;258;28521;-75
2021/04/19 01:44:22;;;;;;;27.70;19.13;;;6.30;99.90;;;;;;457938;258;28494;-75
2021/04/19 01:46:23;;;;;;;43.23;26.03;;;6.40;99.90;;;;;;457905;258;28412;-75
2021/04/19 01:48:24;;;;;;;29.40;21.50;;;6.30;99.90;;;;;;457911;258;28113;-75
2021/04/19 01:50:26;;;;;;;27.07;19.43;;;6.40;99.90;;;;;;457919;259;28843;-75
2021/04/19 01:52:27;;;;;;;25.93;17.53;;;6.40;99.90;;;;;;457918;258;27995;-75
2021/04/19 01:54:28;;;;;;;26.13;18.20;;;6.40;99.90;;;;;;457968;258;28037;-75
2021/04/19 01:56:29;;;;;;;24.70;17.87;;;6.40;99.90;;;;;;457971;258;27963;-75
2021/04/19 01:58:31;;;;;;;27.45;19.75;;;6.40;99.90;;;;;;457951;258;28132;-75
2021/04/19 02:00:32;;;;;;;33.70;21.73;;;6.40;99.90;;;;;;457936;258;27943;-75
2021/04/19 02:02:33;;;;;;;41.43;23.90;;;6.40;99.90;;;;;;457907;258;27991;-74
2021/04/19 02:04:35;;;;;;;28.57;20.07;;;6.30;99.90;;;;;;457968;258;27966;-75
2021/04/19 02:06:36;;;;;;;35.53;25.00;;;6.40;99.90;;;;;;457887;258;27913;-75
2021/04/19 02:08:37;;;;;;;32.33;23.90;;;6.40;99.90;;;;;;457971;258;28383;-75
2021/04/19 02:10:38;;;;;;;27.83;19.80;;;6.40;99.90;;;;;;457930;258;27599;-77
2021/04/19 02:12:39;;;;;;;29.40;20.83;;;6.40;99.90;;;;;;457988;258;27754;-75
2021/04/19 02:14:41;;;;;;;32.07;19.27;;;6.40;99.90;;;;;;457983;258;28079;-75
2021/04/19 02:16:42;;;;;;;28.33;18.37;;;6.40;99.90;;;;;;457898;258;28180;-75
2021/04/19 02:18:43;;;;;;;43.70;27.23;;;6.40;99.90;;;;;;457897;259;28549;-75
2021/04/19 02:20:45;;;;;;;36.33;24.63;;;6.30;99.90;;;;;;457896;258;27992;-75
2021/04/19 02:22:46;;;;;;;32.10;21.17;;;6.30;99.90;;;;;;457888;258;27512;-75
2021/04/19 02:24:47;;;;;;;31.80;20.80;;;6.30;99.90;;;;;;457924;258;28015;-74
2021/04/19 02:26:48;;;;;;;25.67;19.40;;;6.30;99.90;;;;;;457973;258;27832;-74
2021/04/19 02:28:50;;;;;;;25.67;18.90;;;6.30;99.90;;;;;;457975;258;28174;-75
2021/04/19 02:30:51;;;;;;;31.00;20.10;;;6.40;99.90;;;;;;457970;258;27817;-75
2021/04/19 02:32:52;;;;;;;28.90;20.07;;;6.40;99.90;;;;;;457924;258;28020;-75
2021/04/19 02:34:53;;;;;;;26.93;18.83;;;6.40;99.90;;;;;;457956;258;29339;-75
2021/04/19 02:36:55;;;;;;;29.93;21.20;;;6.40;99.90;;;;;;457921;258;28594;-74
2021/04/19 02:38:57;;;;;;;32.97;22.40;;;6.40;99.90;;;;;;457924;258;27823;-75
2021/04/19 02:40:57;;;;;;;29.33;20.40;;;6.40;99.90;;;;;;457858;260;27938;-74
2021/04/19 02:42:58;;;;;;;29.30;20.00;;;6.50;99.90;;;;;;457916;259;28093;-75
2021/04/19 02:45:00;;;;;;;30.93;21.80;;;6.50;99.90;;;;;;457905;258;28079;-75
2021/04/19 02:47:01;;;;;;;26.37;19.40;;;6.50;99.90;;;;;;457951;258;27990;-74
2021/04/19 02:49:02;;;;;;;33.70;22.40;;;6.40;99.90;;;;;;457947;258;28090;-75
2021/04/19 02:51:03;;;;;;;26.27;19.17;;;6.40;99.90;;;;;;457935;258;28623;-75
2021/04/19 02:53:05;;;;;;;33.80;21.90;;;6.40;99.90;;;;;;457928;258;28495;-74
2021/04/19 02:55:06;;;;;;;32.10;22.90;;;6.40;99.90;;;;;;457932;258;28469;-75
2021/04/19 02:57:07;;;;;;;29.00;21.40;;;6.40;99.90;;;;;;457934;258;27873;-75
2021/04/19 02:59:08;;;;;;;31.63;22.40;;;6.40;99.90;;;;;;457942;258;28363;-75
2021/04/19 03:01:10;;;;;;;29.37;21.03;;;6.40;99.90;;;;;;457914;258;27948;-75
2021/04/19 03:03:11;;;;;;;24.70;18.60;;;6.40;99.90;;;;;;457960;258;28902;-75
2021/04/19 03:05:12;;;;;;;31.60;22.30;;;6.40;99.90;;;;;;457987;258;28652;-75
2021/04/19 03:07:13;;;;;;;35.63;21.10;;;6.40;99.90;;;;;;457974;258;27628;-75
2021/04/19 03:09:15;;;;;;;29.00;20.80;;;6.40;99.90;;;;;;457991;258;27977;-75
2021/04/19 03:11:16;;;;;;;31.47;22.00;;;6.40;99.90;;;;;;457919;258;29548;-75
2021/04/19 03:13:17;;;;;;;28.10;19.30;;;6.40;99.90;;;;;;457942;258;28537;-75
2021/04/19 03:15:18;;;;;;;36.03;23.37;;;6.30;99.90;;;;;;457960;259;28050;-75
2021/04/19 03:17:20;;;;;;;30.33;21.80;;;6.40;99.90;;;;;;458007;258;27987;-75
2021/04/19 03:19:21;;;;;;;29.90;20.50;;;6.40;99.90;;;;;;458050;258;28200;-76
2021/04/19 03:21:22;;;;;;;33.60;22.93;;;6.40;99.90;;;;;;458012;258;27972;-75
2021/04/19 03:23:23;;;;;;;28.13;20.47;;;6.40;99.90;;;;;;458021;258;27892;-75
2021/04/19 03:25:25;;;;;;;33.03;22.50;;;6.40;99.90;;;;;;457968;258;27622;-75
2021/04/19 03:27:26;;;;;;;36.10;23.07;;;6.40;99.90;;;;;;457965;258;27761;-74
2021/04/19 03:29:27;;;;;;;36.60;23.40;;;6.40;99.90;;;;;;457945;258;28605;-75
2021/04/19 03:31:28;;;;;;;28.10;20.53;;;6.40;99.90;;;;;;457939;258;28056;-75
2021/04/19 03:33:30;;;;;;;30.10;20.80;;;6.40;99.90;;;;;;457988;256;28081;-75
2021/04/19 03:35:31;;;;;;;33.50;20.67;;;6.40;99.90;;;;;;457976;258;28046;-75
2021/04/19 03:37:32;;;;;;;35.60;23.40;;;6.40;99.90;;;;;;457970;258;28006;-76
2021/04/19 03:39:33;;;;;;;25.00;18.00;;;6.40;99.90;;;;;;457986;258;27739;-74
2021/04/19 03:41:35;;;;;;;30.90;22.43;;;6.40;99.90;;;;;;460379;245;28061;-75
2021/04/19 03:43:36;;;;;;;30.60;21.20;;;6.30;99.90;;;;;;459398;258;28321;-75
2021/04/19 03:45:37;;;;;;;33.40;23.17;;;6.40;99.90;;;;;;459444;258;28110;-75
2021/04/19 03:47:38;;;;;;;35.70;24.10;;;6.40;99.90;;;;;;459418;258;27722;-77
2021/04/19 03:49:40;;;;;;;33.30;22.00;;;6.40;99.90;;;;;;459377;258;28615;-75
2021/04/19 03:51:41;;;;;;;34.33;25.00;;;6.40;99.90;;;;;;459375;258;28028;-75
2021/04/19 03:53:42;;;;;;;28.67;20.20;;;6.40;99.90;;;;;;459373;258;28124;-75
2021/04/19 03:55:43;;;;;;;34.50;21.33;;;6.40;99.90;;;;;;459384;258;28017;-75
2021/04/19 03:57:45;;;;;;;33.07;23.70;;;6.40;99.90;;;;;;459369;258;28112;-75
2021/04/19 03:59:46;;;;;;;37.73;25.27;;;6.40;99.90;;;;;;459344;258;28548;-75
2021/04/19 04:01:47;;;;;;;32.30;22.70;;;6.40;99.90;;;;;;459357;258;28132;-75
2021/04/19 04:03:49;;;;;;;28.23;20.33;;;6.40;99.90;;;;;;459356;258;28218;-75
2021/04/19 04:05:50;;;;;;;34.47;22.67;;;6.50;99.90;;;;;;459343;258;28116;-76
2021/04/19 04:07:51;;;;;;;35.50;24.50;;;6.50;99.90;;;;;;459371;258;28390;-76
2021/04/19 04:09:52;;;;;;;31.30;21.43;;;6.50;99.90;;;;;;459445;258;28069;-75
2021/04/19 04:11:53;;;;;;;30.00;21.60;;;6.50;99.90;;;;;;459445;258;27662;-75
2021/04/19 04:13:55;;;;;;;31.93;21.73;;;6.50;99.90;;;;;;459475;258;28198;-75
2021/04/19 04:15:56;;;;;;;31.53;21.13;;;6.50;99.90;;;;;;459438;258;28967;-76
2021/04/19 04:17:57;;;;;;;29.20;20.40;;;6.50;99.90;;;;;;459477;258;28131;-75
2021/04/19 04:19:59;;;;;;;31.97;21.30;;;6.40;99.90;;;;;;459400;258;28009;-76
2021/04/19 04:22:00;;;;;;;29.23;22.17;;;6.40;99.90;;;;;;459399;258;28065;-76
2021/04/19 04:24:01;;;;;;;32.57;23.03;;;6.40;99.90;;;;;;459388;258;28571;-75
2021/04/19 04:26:02;;;;;;;35.53;23.93;;;6.40;99.90;;;;;;459398;258;28513;-75
2021/04/19 04:28:04;;;;;;;31.33;22.80;;;6.40;99.90;;;;;;459392;258;28693;-75
2021/04/19 04:30:05;;;;;;;29.33;21.30;;;6.40;99.90;;;;;;459359;258;28011;-75
2021/04/19 04:32:06;;;;;;;34.42;21.02;;;6.40;99.90;;;;;;459388;258;27953;-75
2021/04/19 04:34:07;;;;;;;26.10;17.57;;;6.40;99.90;;;;;;459421;258;27654;-75
2021/04/19 04:36:09;;;;;;;27.03;18.93;;;6.30;99.90;;;;;;459430;258;28074;-76
2021/04/19 04:38:10;;;;;;;23.20;16.70;;;6.30;99.90;;;;;;459446;258;28046;-75
2021/04/19 04:40:11;;;;;;;28.43;20.10;;;6.30;99.90;;;;;;459388;259;28545;-74
2021/04/19 04:42:12;;;;;;;32.63;22.27;;;6.30;99.90;;;;;;459500;258;28521;-75
2021/04/19 04:44:14;;;;;;;27.73;20.95;;;6.30;99.90;;;;;;459464;258;28212;-75
2021/04/19 04:46:15;;;;;;;28.53;20.20;;;6.30;99.90;;;;;;459474;258;27642;-75
2021/04/19 04:48:19;;;;;;;21.00;15.43;;;6.30;99.90;;;;;;459457;258;29024;-74
2021/04/19 04:50:17;;;;;;;21.87;15.02;;;6.20;99.90;;;;;;459417;258;27993;-75
2021/04/19 04:52:19;;;;;;;25.57;17.57;;;6.20;99.90;;;;;;459460;259;28080;-75
2021/04/19 04:54:20;;;;;;;22.83;15.97;;;6.20;99.90;;;;;;459446;258;28467;-75
2021/04/19 04:56:21;;;;;;;20.83;15.60;;;6.20;99.90;;;;;;459386;258;29348;-75
2021/04/19 04:58:22;;;;;;;19.03;14.90;;;6.20;99.90;;;;;;459367;258;27596;-76
2021/04/19 05:00:24;;;;;;;26.73;18.48;;;6.20;99.90;;;;;;459379;258;27891;-75
2021/04/19 05:02:25;;;;;;;27.03;17.00;;;6.20;99.90;;;;;;459417;259;27551;-74
2021/04/19 05:04:26;;;;;;;23.23;17.10;;;6.30;99.90;;;;;;459394;258;27969;-75
2021/04/19 05:06:27;;;;;;;22.80;17.50;;;6.30;99.90;;;;;;459381;258;28655;-75
2021/04/19 05:08:29;;;;;;;30.87;18.87;;;6.40;99.90;;;;;;459370;258;28209;-75
2021/04/19 05:10:30;;;;;;;26.23;18.15;;;6.40;99.90;;;;;;459389;258;28206;-75
2021/04/19 05:12:31;;;;;;;27.57;17.97;;;6.40;99.90;;;;;;459404;258;27571;-74
2021/04/19 05:14:34;;;;;;;32.03;22.00;;;6.40;99.90;;;;;;459421;258;27966;-75
2021/04/19 05:16:34;;;;;;;33.73;21.47;;;6.40;99.90;;;;;;459456;258;28984;-75
2021/04/19 05:18:35;;;;;;;37.73;24.40;;;6.50;99.90;;;;;;459455;258;28172;-75
2021/04/19 05:20:36;;;;;;;33.67;23.03;;;6.50;99.90;;;;;;459429;258;28996;-75
2021/04/19 05:22:37;;;;;;;37.93;24.33;;;6.50;99.90;;;;;;459450;258;28499;-75
2021/04/19 05:24:39;;;;;;;29.73;21.97;;;6.50;99.90;;;;;;459445;258;28703;-75
2021/04/19 05:26:40;;;;;;;43.03;25.63;;;6.60;99.90;;;;;;459434;258;27672;-75
2021/04/19 05:28:41;;;;;;;34.93;23.63;;;6.60;99.90;;;;;;459406;258;28080;-75
2021/04/19 05:30:43;;;;;;;37.33;24.30;;;6.70;99.90;;;;;;459453;258;28173;-77
2021/04/19 05:32:44;;;;;;;36.90;24.73;;;6.60;99.90;;;;;;459451;258;28082;-74
2021/04/19 05:34:45;;;;;;;34.07;22.77;;;6.60;99.90;;;;;;459473;258;28062;-75
2021/04/19 05:36:46;;;;;;;36.80;25.60;;;6.70;99.90;;;;;;459432;258;28148;-75
2021/04/19 05:38:48;;;;;;;37.83;26.80;;;6.70;99.90;;;;;;459429;258;28117;-75
2021/04/19 05:40:49;;;;;;;32.90;24.27;;;6.80;99.90;;;;;;459362;258;29314;-75
2021/04/19 05:42:50;;;;;;;37.23;25.67;;;6.80;99.90;;;;;;459360;258;28631;-75
2021/04/19 05:44:52;;;;;;;41.30;27.73;;;6.80;99.90;;;;;;459451;258;28205;-76
2021/04/19 05:46:53;;;;;;;38.53;26.43;;;6.80;99.90;;;;;;459439;258;28177;-77
2021/04/19 05:48:54;;;;;;;33.53;23.97;;;6.80;99.90;;;;;;459427;258;28058;-75
2021/04/19 05:50:55;;;;;;;36.13;24.00;;;6.80;99.90;;;;;;459372;258;28151;-76
2021/04/19 05:52:56;;;;;;;33.33;22.30;;;6.80;99.90;;;;;;459389;258;28207;-75
2021/04/19 05:54:58;;;;;;;32.20;21.47;;;6.90;99.90;;;;;;459423;258;28105;-74
2021/04/19 05:56:59;;;;;;;33.10;22.30;;;6.90;99.90;;;;;;459383;258;27929;-75
2021/04/19 05:59:00;;;;;;;29.37;20.13;;;6.90;99.90;;;;;;459415;258;28564;-74
2021/04/19 06:01:04;;;;;;;26.97;19.90;;;6.90;99.90;;;;;;459422;258;28500;-72
2021/04/19 06:03:03;;;;;;;24.40;17.57;;;6.90;99.90;;;;;;459416;258;27964;-71
2021/04/19 06:05:04;;;;;;;25.67;18.27;;;6.90;99.90;;;;;;459417;258;28006;-72
2021/04/19 06:07:05;;;;;;;27.90;19.23;;;7.00;99.90;;;;;;459405;258;27677;-72
2021/04/19 06:09:06;;;;;;;25.13;18.67;;;6.90;99.90;;;;;;459381;258;28168;-73
2021/04/19 06:11:08;;;;;;;27.87;20.27;;;6.90;99.90;;;;;;459431;258;28114;-72
2021/04/19 06:13:10;;;;;;;24.33;17.50;;;6.90;99.90;;;;;;454137;257;27749;-71
2021/04/19 06:15:13;;;;;;;28.80;20.07;;;6.90;99.90;;;;;;450534;264;27964;-72
2021/04/19 06:17:13;;;;;;;30.20;22.00;;;7.00;99.90;;;;;;450531;264;28124;-72
2021/04/19 06:19:14;;;;;;;37.10;25.23;;;7.00;99.90;;;;;;444020;267;28020;-70
2021/04/19 06:21:15;;;;;;;36.47;24.23;;;7.10;99.90;;;;;;450557;262;28159;-71
2021/04/19 06:23:16;;;;;;;33.30;23.50;;;7.20;99.90;;;;;;444036;267;28106;-71
2021/04/19 06:25:18;;;;;;;36.07;24.27;;;7.30;99.90;;;;;;450574;264;27894;-71
2021/04/19 06:27:19;;;;;;;34.87;23.30;;;7.30;99.90;;;;;;444035;267;28064;-71
2021/04/19 06:29:21;;;;;;;38.40;26.70;;;7.30;99.90;;;;;;450499;262;28212;-70
2021/04/19 06:31:21;;;;;;;36.83;25.17;;;7.30;99.90;;;;;;444044;267;28505;-70
2021/04/19 06:33:23;;;;;;;42.40;29.97;;;7.40;99.90;;;;;;450600;262;28480;-71
2021/04/19 06:35:24;;;;;;;43.07;28.73;;;7.40;99.90;;;;;;444118;264;28264;-71
2021/04/19 06:37:25;;;;;;;43.37;27.13;;;7.50;99.90;;;;;;450596;264;28084;-71
2021/04/19 06:39:26;;;;;;;35.80;24.93;;;7.40;99.90;;;;;;444044;263;27604;-71
2021/04/19 06:41:28;;;;;;;50.23;31.20;;;7.50;99.90;;;;;;450590;262;28141;-71
2021/04/19 06:43:29;;;;;;;47.30;28.40;;;7.60;99.90;;;;;;444109;267;28013;-70
2021/04/19 06:45:30;;;;;;;36.90;25.90;;;7.60;99.90;;;;;;450553;262;28078;-71
2021/04/19 06:47:34;;;;;;;46.67;31.83;;;7.70;99.90;;;;;;444074;267;28059;-72
2021/04/19 06:49:33;;;;;;;40.53;27.07;;;7.70;99.90;;;;;;450360;264;28399;-71
2021/04/19 06:51:34;;;;;;;39.60;27.87;;;7.80;99.90;;;;;;444135;267;28324;-71
2021/04/19 06:53:35;;;;;;;39.00;26.40;;;7.90;99.90;;;;;;450622;262;28546;-71
2021/04/19 06:55:38;;;;;;;35.43;24.67;;;7.90;99.90;;;;;;444008;267;27989;-70
2021/04/19 06:57:38;;;;;;;38.53;26.37;;;8.00;99.90;;;;;;450480;264;28029;-71
2021/04/19 06:59:39;;;;;;;37.90;26.87;;;8.10;99.90;;;;;;444011;267;27954;-71
2021/04/19 07:01:40;;;;;;;37.50;26.87;;;8.10;99.90;;;;;;450539;262;28089;-72
2021/04/19 07:03:42;;;;;;;51.53;26.10;;;8.20;99.90;;;;;;444129;267;28465;-72
2021/04/19 07:05:43;;;;;;;32.60;23.27;;;8.20;99.90;;;;;;450617;262;28229;-71
2021/04/19 07:07:45;;;;;;;35.67;24.17;;;8.20;99.90;;;;;;444179;267;28520;-70
2021/04/19 07:09:45;;;;;;;35.47;23.87;;;8.20;99.90;;;;;;450546;264;29595;-70
2021/04/19 07:11:46;;;;;;;36.47;25.10;;;8.20;99.90;;;;;;444027;268;28636;-71
2021/04/19 07:13:48;;;;;;;45.00;29.90;;;8.10;99.90;;;;;;450582;260;28001;-71
2021/04/19 07:15:49;;;;;;;40.70;27.57;;;8.10;99.90;;;;;;444089;267;27904;-70
2021/04/19 07:17:50;;;;;;;39.20;27.77;;;8.10;99.90;;;;;;450466;262;27843;-71
2021/04/19 07:19:52;;;;;;;36.70;24.57;;;8.10;99.90;;;;;;444031;267;27958;-71
2021/04/19 07:21:53;;;;;;;38.20;26.03;;;8.10;99.90;;;;;;450525;262;28147;-71
2021/04/19 07:23:54;;;;;;;33.97;24.40;;;8.20;99.90;;;;;;444099;267;28140;-72
2021/04/19 07:25:55;;;;;;;32.20;22.60;;;8.30;99.90;;;;;;450615;262;28118;-70
2021/04/19 07:27:57;;;;;;;31.60;23.30;;;8.30;99.90;;;;;;444028;267;28177;-71
2021/04/19 07:29:58;;;;;;;33.37;24.63;;;8.40;99.90;;;;;;450574;262;28747;-71
2021/04/19 07:31:59;;;;;;;33.50;23.50;;;8.50;99.90;;;;;;444054;267;27938;-72
2021/04/19 07:34:00;;;;;;;36.80;25.80;;;8.50;99.90;;;;;;450545;262;28143;-71
2021/04/19 07:36:02;;;;;;;39.70;26.83;;;8.50;99.90;;;;;;444087;267;27902;-71
2021/04/19 07:38:03;;;;;;;34.07;24.40;;;8.60;99.90;;;;;;450525;262;28213;-71
2021/04/19 07:40:04;;;;;;;35.87;26.50;;;8.60;99.90;;;;;;444147;267;28021;-72
2021/04/19 07:42:05;;;;;;;35.53;24.13;;;8.70;99.90;;;;;;450664;262;28149;-72
2021/04/19 07:44:07;;;;;;;39.27;27.50;;;8.80;99.90;;;;;;450546;264;29953;-72
2021/04/19 07:46:08;;;;;;;30.83;24.10;;;8.80;99.90;;;;;;450560;264;28629;-71
2021/04/19 07:48:09;;;;;;;32.43;22.93;;;8.90;99.90;;;;;;450578;264;28449;-72
2021/04/19 07:50:10;;;;;;;44.50;28.70;;;8.90;99.90;;;;;;444128;267;28024;-71
2021/04/19 07:52:12;;;;;;;36.03;25.60;;;8.90;99.90;;;;;;450544;262;28204;-72
2021/04/19 07:54:13;;;;;;;33.80;24.53;;;9.00;99.90;;;;;;444038;267;27935;-71
2021/04/19 07:56:14;;;;;;;40.40;26.17;;;9.10;99.90;;;;;;450559;264;28204;-71
2021/04/19 07:58:15;;;;;;;35.07;24.30;;;9.30;99.90;;;;;;444076;267;28061;-72
2021/04/19 08:00:17;;;;;;;32.17;23.20;;;9.40;99.90;;;;;;450552;262;28607;-71
2021/04/19 08:02:18;;;;;;;34.97;24.20;;;9.30;99.90;;;;;;444056;267;28533;-72
2021/04/19 08:04:19;;;;;;;36.23;24.10;;;9.10;99.90;;;;;;450575;262;29479;-72
2021/04/19 08:06:20;;;;;;;32.70;22.83;;;9.10;99.90;;;;;;444103;267;28216;-72
2021/04/19 08:08:22;;;;;;;28.17;19.80;;;9.20;99.90;;;;;;450568;262;28240;-72
2021/04/19 08:10:23;;;;;;;29.23;19.87;;;9.10;99.90;;;;;;444056;267;28241;-71
2021/04/19 08:12:24;;;;;;;30.03;21.57;;;9.20;99.90;;;;;;450559;262;28126;-72
2021/04/19 08:14:25;;;;;;;33.80;21.27;;;9.30;99.90;;;;;;444169;267;28111;-71
2021/04/19 08:16:28;;;;;;;28.17;18.73;;;9.30;99.90;;;;;;450636;262;28159;-71
2021/04/19 08:18:28;;;;;;;24.47;17.17;;;9.50;99.90;;;;;;450640;260;28744;-72
2021/04/19 08:20:29;;;;;;;26.53;19.20;;;9.40;99.90;;;;;;444181;267;28688;-72
2021/04/19 08:22:31;;;;;;;26.17;18.20;;;9.30;99.90;;;;;;450610;262;28683;-71
2021/04/19 08:24:32;;;;;;;23.10;16.53;;;9.10;99.90;;;;;;444166;267;27767;-71
2021/04/19 08:26:33;;;;;;;22.03;15.87;;;9.20;99.90;;;;;;450634;262;28137;-71
2021/04/19 08:28:34;;;;;;;23.30;16.13;;;9.10;99.90;;;;;;444190;267;28051;-72
2021/04/19 08:30:36;;;;;;;28.00;19.30;;;9.00;99.90;;;;;;450563;262;27954;-72
2021/04/19 08:32:37;;;;;;;23.60;17.10;;;9.10;99.90;;;;;;444054;267;27810;-72
2021/04/19 08:34:38;;;;;;;22.70;16.07;;;9.00;99.90;;;;;;450559;262;28282;-71
2021/04/19 08:36:39;;;;;;;19.93;14.43;;;9.00;99.90;;;;;;444085;267;28555;-71
2021/04/19 08:38:41;;;;;;;18.10;13.80;;;8.90;99.90;;;;;;450620;262;28739;-72
2021/04/19 08:40:42;;;;;;;18.60;13.40;;;8.90;99.90;;;;;;444042;267;28533;-71
2021/04/19 08:42:43;;;;;;;20.20;14.10;;;8.90;99.90;;;;;;450527;262;28239;-72
2021/04/19 08:44:44;;;;;;;23.07;14.90;;;9.00;99.90;;;;;;450543;264;27845;-70
2021/04/19 08:46:46;;;;;;;21.53;15.10;;;8.90;99.90;;;;;;450557;264;28125;-71
2021/04/19 08:48:47;;;;;;;19.97;15.13;;;8.80;99.90;;;;;;444071;267;27890;-72
2021/04/19 08:50:48;;;;;;;22.37;15.63;;;8.90;99.90;;;;;;450556;262;28032;-71
2021/04/19 08:52:49;;;;;;;20.57;15.30;;;8.90;99.90;;;;;;444030;267;28249;-71
2021/04/19 08:54:51;;;;;;;22.87;15.60;;;8.90;99.90;;;;;;450521;262;28527;-71
2021/04/19 08:56:52;;;;;;;20.50;15.30;;;8.90;99.90;;;;;;444043;267;28536;-71
2021/04/19 08:58:53;;;;;;;16.27;11.93;;;8.90;99.90;;;;;;450532;262;28580;-70
2021/04/19 09:00:54;;;;;;;26.67;15.80;;;9.00;99.90;;;;;;444078;267;28023;-71
2021/04/19 09:02:56;;;;;;;16.60;13.30;;;9.10;99.90;;;;;;450564;262;28126;-70
2021/04/19 09:04:57;;;;;;;25.07;15.33;;;9.10;99.90;;;;;;444026;267;27732;-71
2021/04/19 09:06:59;;;;;;;21.83;14.50;;;9.20;99.90;;;;;;450534;260;28105;-71
2021/04/19 09:08:59;;;;;;;19.63;13.90;;;9.20;99.90;;;;;;444072;267;28522;-71
2021/04/19 09:11:06;;;;;;;17.70;12.73;;;9.00;99.90;;;;;;450539;262;28218;-71
2021/04/19 09:13:02;;;;;;;16.37;13.30;;;9.10;99.90;;;;;;450491;264;28768;-70
2021/04/19 09:15:03;;;;;;;21.20;13.60;;;9.10;99.90;;;;;;444049;267;28570;-71
2021/04/19 09:17:04;;;;;;;14.90;12.03;;;9.00;99.90;;;;;;450584;262;28440;-71
2021/04/19 09:19:06;;;;;;;16.93;12.93;;;9.00;99.90;;;;;;444077;267;28149;-71
2021/04/19 09:21:08;;;;;;;15.43;11.03;;;9.00;99.90;;;;;;450554;262;28208;-72
2021/04/19 09:23:08;;;;;;;16.47;11.00;;;9.00;99.90;;;;;;450629;264;27968;-71
2021/04/19 09:25:15;;;;;;;16.00;11.73;;;9.00;99.90;;;;;;444137;267;28000;-71
2021/04/19 09:27:16;;;;;;;18.57;12.50;;;9.00;99.90;;;;;;450637;262;28569;-71
2021/04/19 09:29:18;;;;;;;16.47;11.77;;;9.00;99.90;;;;;;444151;267;28483;-71
2021/04/19 09:31:19;;;;;;;15.60;11.10;;;9.00;99.90;;;;;;450615;262;28162;-72
2021/04/19 09:33:22;;;;;;;23.03;13.37;;;9.10;99.90;;;;;;444067;267;27897;-72
2021/04/19 09:35:21;;;;;;;16.60;12.80;;;9.10;99.90;;;;;;450593;262;28245;-71
2021/04/19 09:37:23;;;;;;;18.33;13.53;;;8.90;99.90;;;;;;444117;267;27688;-72
2021/04/19 09:39:24;;;;;;;17.57;12.73;;;8.90;99.90;;;;;;450594;262;28133;-71
2021/04/19 09:41:25;;;;;;;19.77;14.20;;;8.90;99.90;;;;;;444066;267;27927;-71
2021/04/19 09:43:26;;;;;;;15.23;12.40;;;8.90;99.90;;;;;;450651;262;28046;-71
2021/04/19 09:45:28;;;;;;;18.00;12.60;;;9.00;99.90;;;;;;444161;267;28474;-71
2021/04/19 09:47:29;;;;;;;15.10;12.10;;;9.10;99.90;;;;;;450625;262;28458;-72
2021/04/19 09:49:30;;;;;;;13.57;11.00;;;9.20;99.90;;;;;;444142;267;28505;-71
2021/04/19 09:51:32;;;;;;;20.40;12.83;;;9.30;99.90;;;;;;450551;262;27998;-70
2021/04/19 09:53:33;;;;;;;15.13;11.47;;;9.50;99.90;;;;;;443985;267;28159;-72
2021/04/19 09:55:34;;;;;;;13.87;11.00;;;9.60;99.90;;;;;;450573;262;28092;-70
2021/04/19 09:57:35;;;;;;;12.20;10.30;;;9.60;99.90;;;;;;444011;267;28032;-71
2021/04/19 09:59:37;;;;;;;14.07;10.90;;;9.70;99.90;;;;;;450585;262;28216;-71
2021/04/19 10:01:38;;;;;;;13.03;10.43;;;9.70;99.90;;;;;;450533;264;28080;-71
2021/04/19 10:03:39;;;;;;;12.30;9.97;;;9.70;99.90;;;;;;450589;264;28675;-73
2021/04/19 10:05:40;;;;;;;13.70;10.47;;;9.70;99.90;;;;;;444126;267;28883;-71
2021/04/19 10:07:45;;;;;;;11.93;10.53;;;9.60;99.90;;;;;;450527;262;28462;-72
2021/04/19 10:09:44;;;;;;;13.10;9.80;;;9.50;99.90;;;;;;450520;263;28316;-72
2021/04/19 10:11:44;;;;;;;15.87;10.43;;;9.40;99.90;;;;;;444103;267;27921;-72
2021/04/19 10:13:45;;;;;;;11.60;9.37;;;9.40;99.90;;;;;;450511;262;28127;-72
2021/04/19 10:15:47;;;;;;;11.37;9.87;;;9.40;99.90;;;;;;444067;267;28015;-71
2021/04/19 10:17:48;;;;;;;11.67;9.10;;;9.30;99.90;;;;;;450535;262;28097;-71
2021/04/19 10:19:49;;;;;;;15.47;10.97;;;9.30;99.90;;;;;;444003;267;28173;-70
2021/04/19 10:21:50;;;;;;;16.93;12.80;;;9.30;99.90;;;;;;450562;262;28141;-71
2021/04/19 10:23:52;;;;;;;13.50;11.50;;;9.20;99.90;;;;;;450581;264;28367;-73